Airfield :
LOGIN :

Register | Disclaimer

   EN    FR    IT 

 










Legend :    VFR   Marginal VFR   IFR   Intensive IFR   Very Intensive IFR
Visi :
Ceiling :
>= 8 km
>= 3000ft
5 to 8 km
1000 to 3000 ft
1500m to 5 km
500 to 1000 ft
800 to 1500m
200 to 500 ft
< 800m
< 200 ft
Symbols :   Thunderstorms  Fog  Heavy snow  Heavy precipitations  Wind > 20 kt
SIGMETs :     Misc.  Thunderstorms  Icing  Turbulence  Mountain Waves  Volcanic Ashes






- Airport Elevation : 87 ft
- IATA code : AHO


LIEA - Fertilia Alghero

CURRENT METAR :
  • 261920Z 34003KT 310V030 CAVOK 12/11 Q1019

EXPIRED METARs :
  • 261850Z 32003KT 240V050 CAVOK 11/10 Q1019
  • 261820Z VRB02KT CAVOK 12/11 Q1019
  • 261750Z 02005KT CAVOK 14/13 Q1019
  • 261720Z 02006KT CAVOK 14/13 Q1019

TAF TAF LIEA
Valid from the 26 at 18:00 until the 27 at 18:00 UTC


261700Z 2618/2718 VRB05KT 9999 FEW030
BECMG 2619/2621 06010KT



MET'MAP, your aeronautical weather chart ! - Copyright ORBIFLY December 2007 - Disclaimer

ORBIFLY MET'MAP TEAM :

Programming & Development : Alexandra Zaïnal
Concept & original design : Baudouin d'Aumeries
Assistance for programming : Marc-Olivier Méhu
Technical & hardware support : Manuel Goepfert

Contact : metmap@orbifly.com




SOURCES & CREDITS :

   NOAA